Time;durP1;ratioP1;P1;durP2;ratioP2;P2;SDS_P1;SDS_P2;PMS_P1;PMS_P2;Temp;Humidity;BMP_temperature;BMP_pressure;BME280_temperature;BME280_humidity;BME280_pressure;Samples;Min_cycle;Max_cycle;Signal;HPM_P1;HPM_P2
2022/07/15 00:01:01;;;;;;;2.17;1.07;;;13.80;99.90;13.30;99896;;;;562798;250;24105;-79
2022/07/15 00:03:31;;;;;;;0.93;0.70;;;13.80;99.90;13.30;99896;;;;573162;251;24105;-80
2022/07/15 00:05:59;;;;;;;2.03;1.20;;;13.80;99.90;13.20;99895;;;;581404;243;24074;-75
2022/07/15 00:08:28;;;;;;;1.27;0.60;;;13.80;99.90;13.20;99896;;;;562396;252;24140;-75
2022/07/15 00:10:55;;;;;;;2.73;1.10;;;13.80;99.90;13.20;99891;;;;572342;251;24138;-76
2022/07/15 00:13:25;;;;;;;1.70;0.80;;;13.80;99.90;13.20;99891;;;;568086;248;24110;-76
2022/07/15 00:15:50;;;;;;;1.50;0.93;;;13.80;99.90;13.20;99895;;;;561953;252;24091;-76
2022/07/15 00:18:18;;;;;;;2.00;0.93;;;13.80;99.90;13.20;99898;;;;572193;251;24088;-78
2022/07/15 00:20:46;;;;;;;4.20;1.10;;;13.80;99.90;13.20;99898;;;;580951;247;24107;-78
2022/07/15 00:23:15;;;;;;;2.57;0.70;;;13.80;99.90;13.20;99897;;;;562280;252;24105;-76
2022/07/15 00:25:43;;;;;;;0.70;0.70;;;13.70;99.90;13.20;99897;;;;572095;251;24094;-78
2022/07/15 00:28:15;;;;;;;1.13;0.90;;;13.70;99.90;13.10;99895;;;;571904;247;24224;-79
2022/07/15 00:30:38;;;;;;;1.47;1.07;;;13.70;99.90;13.10;99892;;;;561950;250;24115;-78
2022/07/15 00:33:10;;;;;;;3.17;0.90;;;13.70;99.90;13.10;99895;;;;563850;252;24172;-80
2022/07/15 00:35:35;;;;;;;1.60;0.80;;;13.60;99.90;13.00;99896;;;;580131;247;24115;-75
2022/07/15 00:38:07;;;;;;;2.73;1.00;;;13.60;99.90;13.00;99899;;;;562333;250;24164;-78
2022/07/15 00:40:34;;;;;;;3.80;0.83;;;13.60;99.90;12.90;99889;;;;572286;249;24160;-78
2022/07/15 00:43:02;;;;;;;0.70;0.70;;;13.50;99.90;12.90;99897;;;;572031;248;24084;-77
2022/07/15 00:45:27;;;;;;;2.13;1.20;;;13.50;99.90;12.90;99901;;;;562655;252;24197;-78
2022/07/15 00:47:55;;;;;;;4.53;0.83;;;13.50;99.90;12.80;99895;;;;572623;251;24127;-79
2022/07/15 00:50:26;;;;;;;2.20;0.80;;;13.40;99.90;12.80;99899;;;;580935;247;24079;-77
2022/07/15 00:52:51;;;;;;;1.83;0.63;;;13.40;99.90;12.70;99896;;;;570872;247;24094;-82
2022/07/15 00:55:19;;;;;;;0.73;0.73;;;13.30;99.90;12.70;99903;;;;563686;252;24092;-81
2022/07/15 00:57:47;;;;;;;2.17;0.67;;;13.20;99.90;12.70;99893;;;;564494;250;24109;-77
2022/07/15 01:00:16;;;;;;;0.57;0.57;;;13.20;99.90;12.60;99895;;;;574450;248;24070;-78
2022/07/15 01:02:53;;;;;;;1.93;0.90;;;13.30;99.90;12.60;99904;;;;564338;251;24123;-83
2022/07/15 01:05:14;;;;;;;0.63;0.60;;;13.10;99.90;12.60;99905;;;;564542;251;24170;-78
2022/07/15 01:07:42;;;;;;;0.60;0.60;;;13.10;99.90;12.50;99900;;;;572868;248;24096;-81
2022/07/15 01:10:09;;;;;;;2.83;0.67;;;13.10;99.90;12.50;99909;;;;562747;246;24131;-78
2022/07/15 01:12:35;;;;;;;0.80;0.80;;;13.10;99.90;12.50;99909;;;;563554;251;24107;-76
2022/07/15 01:15:03;;;;;;;1.63;0.83;;;13.10;99.90;12.50;99909;;;;564110;249;24084;-75
2022/07/15 01:17:31;;;;;;;4.40;0.80;;;13.10;99.90;12.50;99904;;;;572015;248;24068;-75
2022/07/15 01:19:59;;;;;;;1.70;0.87;;;13.10;99.90;12.50;99906;;;;562341;252;24104;-76
2022/07/15 01:22:28;;;;;;;1.47;0.93;;;13.10;99.90;12.50;99914;;;;566164;251;24159;-75
2022/07/15 01:24:56;;;;;;;3.78;0.90;;;13.10;99.90;12.50;99908;;;;567078;248;35156;-76
2022/07/15 01:27:25;;;;;;;0.57;0.57;;;13.10;99.90;12.50;99908;;;;562453;252;24092;-76
2022/07/15 01:29:53;;;;;;;0.83;0.80;;;13.10;99.90;12.50;99911;;;;563924;249;24093;-78
2022/07/15 01:32:21;;;;;;;1.93;0.70;;;13.10;99.90;12.50;99911;;;;568094;248;24055;-75
2022/07/15 01:34:49;;;;;;;2.83;0.70;;;13.10;99.90;12.40;99908;;;;562206;252;24105;-75
2022/07/15 01:37:17;;;;;;;0.77;0.70;;;13.00;99.90;12.40;99904;;;;572088;245;24083;-76
2022/07/15 01:39:45;;;;;;;3.77;0.83;;;13.00;99.90;12.40;99902;;;;580436;247;24098;-75
2022/07/15 01:42:13;;;;;;;2.43;0.60;;;13.00;99.90;12.40;99904;;;;562165;252;24083;-74
2022/07/15 01:44:40;;;;;;;1.03;0.50;;;13.00;99.90;12.40;99906;;;;565995;252;24115;-75
2022/07/15 01:47:11;;;;;;;1.03;0.70;;;13.00;99.90;12.30;99908;;;;571840;248;24115;-75
2022/07/15 01:49:36;;;;;;;1.23;0.63;;;12.90;99.90;12.30;99897;;;;563425;251;24093;-76
2022/07/15 01:52:08;;;;;;;1.00;0.67;;;12.80;99.90;12.20;99887;;;;580181;247;25123;-75
2022/07/15 01:54:34;;;;;;;2.63;0.67;;;12.80;99.90;12.20;99896;;;;561437;251;24125;-76
2022/07/15 01:57:04;;;;;;;0.70;0.70;;;12.80;99.90;12.20;99889;;;;571692;251;24104;-77
2022/07/15 01:59:29;;;;;;;0.40;0.40;;;12.80;99.90;12.20;99882;;;;571262;248;24101;-74
2022/07/15 02:01:57;;;;;;;2.97;0.60;;;12.80;99.90;12.30;99886;;;;561944;252;24106;-75
2022/07/15 02:04:26;;;;;;;1.63;0.50;;;12.90;99.90;12.30;99882;;;;562822;252;24110;-74
2022/07/15 02:06:54;;;;;;;0.67;0.50;;;12.90;99.90;12.30;99871;;;;571250;248;24137;-75
2022/07/15 02:09:22;;;;;;;1.40;0.60;;;12.90;99.90;12.20;99883;;;;562140;253;24107;-75
2022/07/15 02:11:54;;;;;;;1.67;0.80;;;12.90;99.90;12.20;99882;;;;572775;248;24101;-75
2022/07/15 02:14:19;;;;;;;2.93;0.70;;;12.70;99.90;12.10;99877;;;;564086;251;24111;-78
2022/07/15 02:16:48;;;;;;;1.37;0.73;;;12.70;99.90;12.00;99879;;;;581391;247;25116;-75
2022/07/15 02:19:16;;;;;;;1.07;1.07;;;12.60;99.90;11.90;99883;;;;562924;252;24110;-74
2022/07/15 02:21:44;;;;;;;1.50;0.67;;;12.60;99.90;11.90;99872;;;;572825;250;24126;-75
2022/07/15 02:24:11;;;;;;;1.00;0.70;;;12.50;99.90;11.80;99882;;;;581258;244;24128;-77
2022/07/15 02:26:40;;;;;;;3.63;0.90;;;12.40;99.90;11.80;99889;;;;562752;252;24139;-74
2022/07/15 02:29:07;;;;;;;0.60;0.60;;;12.40;99.90;11.70;99888;;;;566247;248;24099;-75
2022/07/15 02:31:35;;;;;;;4.23;1.07;;;12.30;99.90;11.70;99888;;;;572144;248;24076;-74
2022/07/15 02:34:04;;;;;;;7.00;1.30;;;12.20;99.90;11.60;99893;;;;562482;251;24125;-75
2022/07/15 02:36:35;;;;;;;0.93;0.70;;;12.20;99.90;11.60;99894;;;;566743;248;24113;-78
2022/07/15 02:39:00;;;;;;;2.17;1.00;;;12.20;99.90;11.50;99894;;;;572443;248;24082;-79
2022/07/15 02:41:28;;;;;;;3.43;0.87;;;12.10;99.90;11.50;99886;;;;563173;252;24207;-75
2022/07/15 02:44:00;;;;;;;1.30;0.63;;;12.10;99.90;11.40;99889;;;;572596;251;24246;-74
2022/07/15 02:46:24;;;;;;;1.27;1.00;;;12.00;99.90;11.40;99891;;;;572296;248;24084;-78
2022/07/15 02:48:52;;;;;;;5.30;0.80;;;12.00;99.90;11.40;99892;;;;563400;252;24110;-82
2022/07/15 02:51:20;;;;;;;1.97;1.07;;;12.00;99.90;11.30;99893;;;;572912;251;24114;-81
2022/07/15 02:53:48;;;;;;;0.90;0.90;;;11.90;99.90;11.30;99897;;;;580384;247;24081;-76
2022/07/15 02:56:16;;;;;;;1.47;0.80;;;11.90;99.90;11.30;99887;;;;562167;252;24113;-77
2022/07/15 02:58:43;;;;;;;0.87;0.87;;;11.90;99.90;11.30;99891;;;;566219;248;24098;-75
2022/07/15 03:01:12;;;;;;;5.30;0.97;;;11.90;99.90;11.30;99892;;;;571679;248;24102;-76
2022/07/15 03:03:40;;;;;;;0.97;0.97;;;11.90;99.90;11.30;99895;;;;561729;252;24106;-76
2022/07/15 03:06:08;;;;;;;1.80;1.00;;;11.90;99.90;11.30;99890;;;;571981;251;24113;-75
2022/07/15 03:08:36;;;;;;;5.37;0.83;;;11.90;99.90;11.30;99900;;;;581079;247;24074;-76
2022/07/15 03:11:04;;;;;;;1.27;0.80;;;11.90;99.90;11.30;99900;;;;562373;252;24087;-83
2022/07/15 03:13:32;;;;;;;1.53;1.10;;;11.90;99.90;11.30;99901;;;;572698;246;24094;-78
2022/07/15 03:16:00;;;;;;;7.27;1.20;;;11.90;99.90;11.30;99906;;;;581521;247;24166;-77
2022/07/15 03:18:28;;;;;;;2.40;1.00;;;11.90;99.90;11.30;99907;;;;563114;252;24099;-76
2022/07/15 03:20:55;;;;;;;8.30;1.13;;;12.00;99.90;11.30;99913;;;;554764;254;24121;-78
2022/07/15 03:23:23;;;;;;;1.03;0.70;;;11.90;99.90;11.30;99915;;;;582102;246;24074;-76
2022/07/15 03:25:51;;;;;;;1.77;1.00;;;12.00;99.90;11.40;99904;;;;563323;252;24093;-76
2022/07/15 03:28:20;;;;;;;2.23;1.03;;;12.00;99.90;11.40;99905;;;;573021;251;24071;-75
2022/07/15 03:30:48;;;;;;;1.00;1.00;;;12.00;99.90;11.50;99912;;;;581206;247;24096;-77
2022/07/15 03:33:16;;;;;;;0.93;0.90;;;12.00;99.90;11.50;99910;;;;562926;252;24108;-76
2022/07/15 03:35:44;;;;;;;4.07;0.63;;;12.10;99.90;11.80;99911;;;;572771;251;24269;-75
2022/07/15 03:38:12;;;;;;;3.50;0.80;;;12.30;99.90;12.50;99910;;;;572234;248;24069;-76
2022/07/15 03:40:39;;;;;;;1.80;1.00;;;12.90;99.90;13.50;99922;;;;562465;250;24113;-75
2022/07/15 03:43:07;;;;;;;5.50;0.90;;;13.80;99.90;14.50;99912;;;;572545;246;24076;-75
2022/07/15 03:45:35;;;;;;;1.53;0.60;;;14.90;99.90;15.30;99920;;;;580924;247;24072;-76
2022/07/15 03:48:03;;;;;;;2.83;0.70;;;15.70;99.90;15.90;99910;;;;570783;249;24084;-76
2022/07/15 03:50:31;;;;;;;2.47;0.93;;;16.30;99.90;16.60;99916;;;;553486;254;24155;-76
2022/07/15 03:52:59;;;;;;;1.10;0.80;;;17.10;99.90;17.20;99910;;;;580213;247;24070;-74
2022/07/15 03:55:27;;;;;;;6.17;0.93;;;17.50;99.90;17.80;99907;;;;562018;252;24181;-74
2022/07/15 03:57:55;;;;;;;6.83;0.80;;;18.40;99.90;18.50;99918;;;;571721;251;24088;-75
2022/07/15 04:00:26;;;;;;;3.50;0.93;;;19.10;99.90;19.30;99911;;;;580169;247;24083;-75
2022/07/15 04:02:51;;;;;;;1.97;0.90;;;19.80;99.90;20.10;99920;;;;562923;252;24155;-75
2022/07/15 04:05:19;;;;;;;14.40;1.80;;;20.60;99.90;20.90;99916;;;;579980;247;24083;-75
2022/07/15 04:07:46;;;;;;;9.80;1.70;;;21.40;99.90;21.70;99918;;;;553487;255;23216;-76
2022/07/15 04:10:14;;;;;;;5.23;1.10;;;22.20;99.90;22.00;99920;;;;580045;247;24084;-76
2022/07/15 04:12:46;;;;;;;7.60;1.10;;;22.70;99.90;22.50;99923;;;;563322;252;24104;-76
2022/07/15 04:15:10;;;;;;;15.97;1.37;;;23.20;99.90;23.00;99917;;;;567671;248;24074;-76
2022/07/15 04:17:38;;;;;;;32.90;3.57;;;23.70;99.90;22.30;99918;;;;553939;255;24101;-87
2022/07/15 04:20:06;;;;;;;18.40;1.70;;;23.40;98.80;21.00;99925;;;;572365;248;24053;-78
2022/07/15 04:22:43;;;;;;;1.70;0.70;;;22.40;99.20;19.90;99918;;;;562089;252;24075;-77
2022/07/15 04:25:11;;;;;;;5.20;1.17;;;21.20;99.90;19.50;99925;;;;553606;256;23138;-76
2022/07/15 04:27:41;;;;;;;12.60;1.10;;;20.90;99.90;20.20;99936;;;;571786;248;24144;-79
2022/07/15 04:30:08;;;;;;;3.50;1.00;;;20.90;99.90;20.10;99925;;;;554094;256;24161;-82
2022/07/15 04:32:36;;;;;;;3.10;0.77;;;20.90;99.90;19.40;99935;;;;572482;247;24066;-86
2022/07/15 04:35:04;;;;;;;5.93;0.97;;;20.30;99.90;18.80;99932;;;;563971;252;24084;-84
2022/07/15 04:37:32;;;;;;;3.70;1.13;;;19.70;99.90;18.30;99934;;;;574037;248;24160;-81
2022/07/15 04:40:00;;;;;;;3.37;0.50;;;19.10;99.90;17.90;99932;;;;572155;248;24075;-78
2022/07/15 04:42:29;;;;;;;20.00;2.77;;;18.30;99.90;17.70;99935;;;;562469;252;24108;-75
2022/07/15 04:44:58;;;;;;;5.17;1.17;;;18.30;99.90;17.70;99936;;;;572305;251;24092;-76
2022/07/15 04:47:26;;;;;;;4.37;1.10;;;18.30;99.90;17.70;99937;;;;580883;247;24059;-77
2022/07/15 04:52:44;;;;;;;4.70;0.97;;;18.10;99.90;17.60;99933;;;;553881;256;24164;-75
2022/07/15 04:55:12;;;;;;;3.50;0.73;;;18.10;99.90;17.60;99943;;;;571835;248;24100;-77
2022/07/15 04:57:41;;;;;;;2.60;0.80;;;18.10;99.90;17.60;99949;;;;562437;252;24091;-75
2022/07/15 05:00:08;;;;;;;3.27;0.90;;;18.10;99.90;17.30;99944;;;;563226;250;24088;-74
2022/07/15 05:02:36;;;;;;;1.70;0.70;;;17.90;99.90;17.00;99951;;;;580550;247;24060;-74
2022/07/15 05:05:08;;;;;;;4.90;0.93;;;17.60;99.90;18.50;99949;;;;562293;252;24083;-75
2022/07/15 05:07:32;;;;;;;3.17;0.70;;;18.80;99.90;20.90;99957;;;;563516;252;23155;-75
2022/07/15 05:10:00;;;;;;;2.23;1.20;;;21.20;99.90;23.40;99953;;;;572509;248;24049;-76
2022/07/15 05:12:29;;;;;;;2.03;0.90;;;23.60;99.90;25.30;99960;;;;563193;252;23114;-86
2022/07/15 05:14:57;;;;;;;1.70;0.80;;;25.70;97.30;27.00;99970;;;;572709;251;24102;-83
2022/07/15 05:17:25;;;;;;;1.07;0.70;;;27.40;90.60;28.10;99967;;;;581781;247;24064;-85
2022/07/15 05:19:53;;;;;;;2.70;0.97;;;28.80;81.10;28.10;99968;;;;562893;252;23112;-85
2022/07/15 05:22:25;;;;;;;4.23;0.60;;;29.10;75.70;28.60;99966;;;;554378;256;24082;-77
2022/07/15 05:24:49;;;;;;;2.30;0.90;;;29.60;71.30;29.60;99974;;;;567925;248;23080;-80
2022/07/15 05:27:18;;;;;;;13.27;1.43;;;31.70;62.50;30.80;99980;;;;562893;252;23108;-80
2022/07/15 05:29:46;;;;;;;1.98;1.00;;;32.60;59.70;31.90;99984;;;;571768;251;23111;-77
2022/07/15 05:32:14;;;;;;;4.43;0.70;;;32.50;59.60;32.50;99989;;;;580852;244;23082;-81
2022/07/15 05:34:42;;;;;;;2.53;1.00;;;33.40;56.50;33.00;99980;;;;563056;252;23159;-84
2022/07/15 05:37:10;;;;;;;4.37;0.90;;;33.80;54.90;33.60;99989;;;;572360;251;23090;-84
2022/07/15 05:39:53;;;;;;;3.87;0.98;;;34.90;51.40;34.20;99977;;;;580964;247;23089;-81
2022/07/15 05:42:06;;;;;;;3.42;1.10;;;34.90;51.40;35.00;99978;;;;563584;252;23105;-86
2022/07/15 05:44:34;;;;;;;3.55;1.12;;;35.70;49.60;34.80;99994;;;;582011;245;23115;-85
2022/07/15 05:47:02;;;;;;;4.70;1.20;;;35.80;48.50;35.20;99995;;;;563605;252;24092;-82
2022/07/15 05:49:30;;;;;;;5.25;1.50;;;36.00;48.10;35.70;99997;;;;568418;251;35198;-77
2022/07/15 05:51:58;;;;;;;1.42;1.25;;;36.50;46.80;35.00;100006;;;;580857;243;23096;-75
2022/07/15 05:54:27;;;;;;;9.00;2.03;;;35.70;47.20;34.80;100002;;;;553929;256;23143;-77
2022/07/15 05:56:55;;;;;;;7.37;1.62;;;35.60;47.10;35.20;100011;;;;581010;247;23087;-80
2022/07/15 05:59:23;;;;;;;2.47;0.70;;;35.90;46.10;35.70;100014;;;;553857;256;23145;-80
2022/07/15 06:01:53;;;;;;;5.53;1.10;;;36.30;46.40;36.60;100021;;;;580742;247;23073;-82
2022/07/15 06:04:18;;;;;;;7.53;1.10;;;37.10;44.90;35.80;100024;;;;553614;255;23153;-78
2022/07/15 06:06:47;;;;;;;2.28;0.90;;;36.70;44.30;34.60;100021;;;;580355;247;23081;-78
2022/07/15 06:09:14;;;;;;;71.97;6.28;;;35.70;45.50;34.30;100022;;;;553378;256;23157;-81
2022/07/15 06:11:42;;;;;;;2.70;1.50;;;35.30;45.90;34.10;100029;;;;580252;247;23076;-78
2022/07/15 06:14:10;;;;;;;10.25;1.45;;;34.90;46.60;33.00;100028;;;;553396;256;23133;-80
2022/07/15 06:16:38;;;;;;;5.37;1.27;;;34.00;47.50;32.00;100021;;;;575267;247;35244;-81
2022/07/15 06:19:08;;;;;;;6.72;1.50;;;33.00;48.90;30.70;100032;;;;553189;256;23147;-80
2022/07/15 06:21:34;;;;;;;3.85;1.37;;;31.90;50.30;29.30;100030;;;;579948;247;23191;-80
2022/07/15 06:24:02;;;;;;;24.87;2.28;;;30.50;52.00;27.80;100044;;;;561593;252;23139;-82
2022/07/15 06:26:30;;;;;;;4.33;0.93;;;29.00;54.10;26.40;100037;;;;565434;249;23110;-81
2022/07/15 06:28:58;;;;;;;2.97;0.90;;;27.50;59.20;25.30;100033;;;;572716;248;24085;-80
2022/07/15 06:31:26;;;;;;;10.67;1.90;;;26.30;61.70;24.20;100039;;;;573394;245;23097;-81
2022/07/15 06:33:53;;;;;;;5.77;1.17;;;25.10;63.20;24.30;100040;;;;554542;255;23134;-81
2022/07/15 06:36:21;;;;;;;4.57;1.83;;;24.80;65.90;25.00;100036;;;;564599;251;24084;-80
2022/07/15 06:38:50;;;;;;;6.60;1.53;;;26.10;64.10;26.00;100036;;;;554543;255;23130;-80
2022/07/15 06:41:19;;;;;;;1.17;0.90;;;26.50;63.10;26.10;100042;;;;564699;249;24091;-80
2022/07/15 06:43:47;;;;;;;2.93;1.07;;;26.50;63.00;25.10;100036;;;;554634;255;24166;-79
2022/07/15 06:46:15;;;;;;;1.63;0.70;;;25.80;67.80;23.80;100045;;;;573459;245;24120;-79
2022/07/15 06:48:42;;;;;;;1.17;0.83;;;24.70;69.00;22.90;100038;;;;561297;253;23174;-79
2022/07/15 06:51:11;;;;;;;3.03;0.93;;;23.80;71.30;22.40;100037;;;;571480;248;24058;-78
2022/07/15 06:53:38;;;;;;;1.80;0.77;;;23.10;73.50;24.60;100031;;;;561343;251;24101;-79
2022/07/15 06:56:09;;;;;;;2.10;1.07;;;24.40;74.70;27.70;100042;;;;555176;253;24114;-78
2022/07/15 06:58:34;;;;;;;3.37;1.13;;;27.30;69.10;30.30;100039;;;;558205;254;23127;-77
2022/07/15 07:01:02;;;;;;;1.60;1.00;;;30.00;60.90;32.40;100036;;;;558321;254;24127;-77
2022/07/15 07:03:30;;;;;;;4.95;1.25;;;32.20;56.20;34.00;100049;;;;557994;254;23173;-76
2022/07/15 07:05:59;;;;;;;4.30;1.20;;;35.90;50.50;35.80;100050;;;;557721;254;23108;-78
2022/07/15 07:08:27;;;;;;;8.07;1.20;;;35.90;50.40;37.20;100050;;;;557776;254;23090;-80
2022/07/15 07:10:54;;;;;;;5.72;1.60;;;37.40;46.80;38.30;100051;;;;557695;252;23099;-80
2022/07/15 07:13:23;;;;;;;3.97;1.30;;;38.50;44.30;38.80;100060;;;;557914;254;23091;-81
2022/07/15 07:15:50;;;;;;;5.43;1.75;;;39.20;43.20;39.50;100060;;;;557550;254;23105;-82
2022/07/15 07:18:18;;;;;;;4.20;1.10;;;39.80;41.70;40.10;100061;;;;568171;251;23158;-80
2022/07/15 07:20:46;;;;;;;40.50;3.50;;;40.50;39.80;39.80;100061;;;;557508;254;23130;-81
2022/07/15 07:23:14;;;;;;;4.75;1.37;;;40.60;39.50;40.00;100053;;;;557457;254;23133;-82
2022/07/15 07:25:42;;;;;;;5.15;1.27;;;40.60;39.00;40.10;100050;;;;568136;253;23113;-82
2022/07/15 07:28:13;;;;;;;3.20;1.00;;;40.70;38.00;40.30;100062;;;;557543;254;23100;-78
2022/07/15 07:30:38;;;;;;;1.90;0.85;;;40.80;37.50;40.60;100060;;;;559493;254;23129;-83
2022/07/15 07:33:06;;;;;;;7.60;1.30;;;41.10;37.20;41.20;100066;;;;557860;254;23130;-83
2022/07/15 07:35:34;;;;;;;15.38;2.08;;;41.50;37.10;42.20;100075;;;;557489;254;23087;-81
2022/07/15 07:38:02;;;;;;;12.25;1.80;;;42.30;36.20;41.90;100085;;;;557603;254;23161;-78
2022/07/15 07:40:30;;;;;;;35.67;3.67;;;42.40;36.00;41.60;100087;;;;557241;254;23168;-80
2022/07/15 07:42:58;;;;;;;2.42;1.40;;;42.20;36.30;41.50;100083;;;;557536;254;24114;-80
2022/07/15 07:45:28;;;;;;;5.80;1.60;;;41.90;35.90;41.10;100094;;;;557593;252;23084;-78
2022/07/15 07:47:54;;;;;;;3.72;1.17;;;41.10;36.70;40.00;100095;;;;557590;252;23138;-82
2022/07/15 07:50:23;;;;;;;9.90;1.95;;;38.70;37.70;36.60;100109;;;;560117;254;23105;-82
2022/07/15 07:52:51;;;;;;;21.37;2.62;;;35.60;39.70;33.30;100108;;;;560296;254;23098;-81
2022/07/15 07:55:20;;;;;;;7.68;1.42;;;33.10;42.80;31.10;100110;;;;557899;254;23132;-81
2022/07/15 07:57:55;;;;;;;4.30;1.00;;;33.00;42.80;29.90;100110;;;;558150;254;23108;-79
2022/07/15 08:00:19;;;;;;;2.70;0.90;;;31.30;46.40;29.10;100117;;;;567156;250;23114;-77
2022/07/15 08:02:48;;;;;;;29.73;3.40;;;29.10;49.00;28.40;100110;;;;558320;254;24266;-78
2022/07/15 08:05:16;;;;;;;3.65;0.82;;;29.00;49.50;27.70;100101;;;;558439;254;23103;-80
2022/07/15 08:07:43;;;;;;;11.83;2.50;;;28.30;51.10;27.70;100106;;;;559009;253;24164;-80
2022/07/15 08:10:11;;;;;;;7.60;1.40;;;28.10;52.70;28.00;100115;;;;567578;249;23083;-79
2022/07/15 08:12:39;;;;;;;7.18;1.20;;;28.20;52.20;28.00;100117;;;;569834;246;23109;-79
2022/07/15 08:15:07;;;;;;;26.87;3.23;;;28.30;51.80;28.80;100118;;;;577407;249;24134;-81
2022/07/15 08:17:35;;;;;;;25.70;1.73;;;28.90;53.30;29.00;100116;;;;557318;254;24139;-77
2022/07/15 08:20:03;;;;;;;7.10;1.37;;;29.30;52.50;28.50;100129;;;;565076;250;23100;-79
2022/07/15 08:22:31;;;;;;;2.53;0.80;;;29.00;52.60;28.00;100125;;;;569493;246;23108;-82
2022/07/15 08:24:59;;;;;;;52.23;5.40;;;28.60;53.30;27.50;100138;;;;577440;249;23102;-80
2022/07/15 08:27:27;;;;;;;6.27;2.17;;;28.10;54.40;27.00;100139;;;;568672;252;24170;-82
2022/07/15 08:29:55;;;;;;;2.67;1.00;;;27.70;55.10;26.20;100149;;;;567791;250;23109;-82
2022/07/15 08:32:23;;;;;;;4.30;0.93;;;27.00;57.90;25.10;100152;;;;557846;254;24135;-78
2022/07/15 08:34:51;;;;;;;8.33;1.80;;;26.00;60.60;24.20;100146;;;;565510;250;24136;-77
2022/07/15 08:37:18;;;;;;;5.23;0.87;;;25.10;61.60;23.50;100146;;;;557645;254;24076;-79
2022/07/15 08:39:46;;;;;;;1.97;0.93;;;24.30;62.80;22.80;100151;;;;557607;254;24083;-79
2022/07/15 08:42:14;;;;;;;7.73;1.47;;;23.50;66.10;22.40;100149;;;;557624;254;24060;-80
2022/07/15 08:44:42;;;;;;;3.07;1.10;;;23.00;67.30;22.00;100148;;;;565337;250;24116;-76
2022/07/15 08:47:11;;;;;;;1.83;0.83;;;22.20;69.80;21.70;100140;;;;559550;254;23101;-77
2022/07/15 08:49:40;;;;;;;3.03;0.90;;;22.00;70.40;21.50;100151;;;;565280;250;23096;-78
2022/07/15 08:52:08;;;;;;;2.40;1.00;;;21.90;71.40;21.50;100151;;;;559482;254;24151;-78
2022/07/15 08:54:36;;;;;;;5.00;1.33;;;21.80;71.40;21.80;100147;;;;565320;250;23107;-77
2022/07/15 08:57:08;;;;;;;15.67;1.00;;;22.20;71.80;21.80;100154;;;;559762;253;24133;-79
2022/07/15 08:59:32;;;;;;;19.73;1.93;;;22.30;74.20;21.80;100162;;;;555506;254;24092;-80
2022/07/15 09:02:00;;;;;;;5.50;1.37;;;22.30;75.60;21.60;100161;;;;557252;254;24089;-77
2022/07/15 09:04:28;;;;;;;3.87;0.87;;;22.10;76.10;21.30;100170;;;;565156;250;24130;-81
2022/07/15 09:06:56;;;;;;;4.77;1.33;;;21.80;77.40;21.10;100163;;;;557254;254;24081;-78
2022/07/15 09:09:26;;;;;;;3.87;0.87;;;21.60;78.40;20.90;100164;;;;566701;250;24171;-80
2022/07/15 09:12:10;;;;;;;8.30;1.53;;;21.70;80.30;21.40;100159;;;;557285;254;23108;-79
2022/07/15 09:14:41;;;;;;;8.10;1.43;;;21.70;80.30;23.50;100165;;;;557066;252;24158;-79
2022/07/15 09:17:12;;;;;;;4.50;1.47;;;23.60;77.20;25.00;100161;;;;575465;246;24130;-80
2022/07/15 09:20:13;;;;;;;6.70;1.10;;;25.20;71.30;26.00;100157;;;;560637;253;23188;-77
2022/07/15 09:22:56;;;;;;;7.77;1.73;;;26.30;66.50;26.60;100152;;;;566157;249;25349;-77
2022/07/15 09:25:21;;;;;;;2.93;1.10;;;27.10;64.80;27.10;100158;;;;560011;250;23124;-78
2022/07/15 09:27:49;;;;;;;4.37;1.23;;;27.60;61.70;29.70;100139;;;;565884;250;24100;-78
2022/07/15 09:36:22;;;;;;;4.03;1.10;;;33.80;48.70;31.20;100150;;;;560007;254;23168;-77
2022/07/15 09:39:09;;;;;;;7.47;1.83;;;32.70;49.70;29.70;100154;;;;559867;253;24074;-78
2022/07/15 09:41:36;;;;;;;3.95;1.10;;;31.30;54.60;28.10;100152;;;;555648;251;24164;-79
2022/07/15 09:44:18;;;;;;;4.72;1.62;;;29.60;56.30;26.90;100156;;;;559797;254;23134;-80
2022/07/15 09:47:01;;;;;;;3.43;1.23;;;28.30;58.20;25.70;100147;;;;559701;251;23110;-79
2022/07/15 09:49:32;;;;;;;3.73;1.60;;;25.50;63.80;24.40;100155;;;;560320;254;23131;-79
2022/07/15 09:52:08;;;;;;;5.50;1.13;;;25.40;63.10;23.50;100167;;;;559846;250;24087;-78
2022/07/15 09:54:39;;;;;;;3.47;1.03;;;24.40;66.10;22.90;100162;;;;568454;251;24070;-76
2022/07/15 09:57:07;;;;;;;4.33;1.30;;;23.60;69.20;22.60;100171;;;;556897;254;24086;-77
2022/07/15 09:59:35;;;;;;;9.33;1.37;;;23.20;71.00;23.30;100159;;;;559254;254;24120;-77
2022/07/15 10:02:06;;;;;;;3.60;0.87;;;23.60;71.90;25.40;100158;;;;575474;249;24219;-77
2022/07/15 10:04:31;;;;;;;3.37;1.03;;;25.40;68.20;27.00;100180;;;;558690;254;24099;-78
2022/07/15 10:07:02;;;;;;;2.27;1.17;;;27.30;62.50;26.80;100183;;;;565186;250;24159;-77
2022/07/15 10:09:29;;;;;;;5.40;0.87;;;27.60;58.40;25.50;100193;;;;567791;252;23149;-77
2022/07/15 10:12:00;;;;;;;5.17;1.00;;;25.60;61.70;24.40;100190;;;;555721;253;24179;-78
2022/07/15 10:14:31;;;;;;;1.77;0.97;;;25.50;61.70;23.80;100186;;;;574881;249;26298;-77
2022/07/15 10:17:17;;;;;;;15.80;1.73;;;24.80;64.30;24.10;100185;;;;559474;254;24129;-77
2022/07/15 10:20:07;;;;;;;8.80;1.67;;;24.80;65.70;25.00;100185;;;;566692;250;24138;-78
2022/07/15 10:23:02;;;;;;;7.37;1.00;;;25.30;65.80;26.10;100182;;;;558987;251;24077;-79
2022/07/15 10:26:01;;;;;;;6.20;4.30;;;26.50;63.50;26.70;100168;;;;575221;249;23107;-80
2022/07/15 10:28:34;;;;;;;5.20;2.60;;;27.30;60.50;26.50;100172;;;;558996;251;26251;-81
2022/07/15 10:31:14;;;;;;;4.03;1.50;;;27.30;59.70;27.50;100181;;;;562664;248;35358;-80
2022/07/15 10:33:45;;;;;;;3.83;1.50;;;28.10;59.50;28.30;100181;;;;557981;254;24163;-81
2022/07/15 10:36:10;;;;;;;5.97;1.30;;;28.90;58.30;29.50;100187;;;;560013;254;23168;-80
2022/07/15 10:38:42;;;;;;;6.35;1.10;;;31.10;53.50;30.20;100173;;;;565923;250;24217;-79
2022/07/15 10:41:17;;;;;;;4.30;1.15;;;31.30;52.20;30.10;100184;;;;557431;254;23159;-80
2022/07/15 10:43:50;;;;;;;3.37;0.95;;;31.30;52.10;29.10;100187;;;;567157;250;23110;-79
2022/07/15 10:46:22;;;;;;;1.12;1.02;;;29.70;54.80;28.60;100179;;;;559817;254;23107;-78
2022/07/15 10:48:58;;;;;;;2.92;1.00;;;29.70;54.80;28.20;100186;;;;567249;250;23152;-80
2022/07/15 10:51:35;;;;;;;2.17;1.17;;;29.00;55.90;27.60;100189;;;;556184;254;23182;-78
2022/07/15 10:54:18;;;;;;;4.57;1.50;;;28.20;57.50;27.20;100195;;;;559246;250;35202;-79
2022/07/15 10:56:46;;;;;;;15.07;2.33;;;27.70;58.10;26.50;100195;;;;559740;254;23196;-80
2022/07/15 10:59:19;;;;;;;2.17;1.00;;;27.00;58.60;25.80;100188;;;;567331;250;24160;-79
2022/07/15 11:01:48;;;;;;;28.20;3.30;;;26.30;60.30;25.50;100179;;;;559780;254;24085;-78
2022/07/15 11:04:21;;;;;;;37.07;2.97;;;25.80;61.60;25.30;100182;;;;567156;250;23084;-80
2022/07/15 11:07:07;;;;;;;5.37;1.33;;;25.60;62.80;25.20;100178;;;;557512;254;24163;-79
2022/07/15 11:09:56;;;;;;;14.37;2.00;;;25.50;63.50;25.10;100184;;;;557752;253;24140;-78
2022/07/15 11:12:34;;;;;;;6.27;1.57;;;25.50;64.20;25.30;100189;;;;567074;250;24130;-78
2022/07/15 11:15:12;;;;;;;87.57;8.53;;;25.50;64.00;25.10;100200;;;;559748;254;24128;-78
2022/07/15 11:17:40;;;;;;;13.97;2.23;;;25.50;64.70;24.70;100210;;;;565404;250;26241;-79
2022/07/15 11:20:11;;;;;;;17.77;2.43;;;25.30;66.90;23.90;100218;;;;559822;244;24109;-79
2022/07/15 11:22:45;;;;;;;8.43;1.77;;;24.60;71.60;23.20;100213;;;;557431;254;24126;-77
2022/07/15 11:25:37;;;;;;;13.00;2.53;;;23.90;75.20;22.60;100210;;;;557420;254;23151;-79
2022/07/15 11:28:10;;;;;;;4.73;1.27;;;23.30;76.30;22.40;100208;;;;554917;254;35344;-79
2022/07/15 11:30:48;;;;;;;5.12;1.67;;;22.90;76.80;22.40;100208;;;;555208;250;35273;-79